sensor_id;sensor_type;location;lat;lon;timestamp;pressure;altitude;pressure_sealevel;temperature;humidity
57894;BME280;43710;47.460;19.034;2023-03-14T04:58:31;99442.53;;;9.94;57.87
57894;BME280;43710;47.460;19.034;2023-03-14T05:01:35;99442.53;;;9.94;57.87
57894;BME280;43710;47.460;19.034;2023-03-14T05:04:37;99455.88;;;9.53;59.11
57894;BME280;43710;47.460;19.034;2023-03-14T05:07:41;99443.63;;;9.65;74.51
57894;BME280;43710;47.460;19.034;2023-03-14T05:10:43;99445.81;;;9.63;58.02
57894;BME280;43710;47.460;19.034;2023-03-14T05:13:46;99446.28;;;9.65;57.89
57894;BME280;43710;47.460;19.034;2023-03-14T05:16:49;99435.97;;;9.73;57.51
57894;BME280;43710;47.460;19.034;2023-03-14T05:19:52;99435.97;;;9.73;58.40
57894;BME280;43710;47.460;19.034;2023-03-14T05:22:54;99429.34;;;9.84;56.13
57894;BME280;43710;47.460;19.034;2023-03-14T05:25:57;99430.31;;;10.02;57.08
57894;BME280;43710;47.460;19.034;2023-03-14T05:28:59;99424.28;;;10.10;58.37
57894;BME280;43710;47.460;19.034;2023-03-14T05:32:02;99423.16;;;10.25;60.94
57894;BME280;43710;47.460;19.034;2023-03-14T05:35:04;99421.37;;;10.34;63.93
57894;BME280;43710;47.460;19.034;2023-03-14T05:38:07;99418.97;;;10.46;57.83
57894;BME280;43710;47.460;19.034;2023-03-14T05:41:10;99411.03;;;10.41;55.49
57894;BME280;43710;47.460;19.034;2023-03-14T05:44:13;99402.56;;;10.48;60.13
57894;BME280;43710;47.460;19.034;2023-03-14T05:47:15;99407.00;;;10.52;55.38
57894;BME280;43710;47.460;19.034;2023-03-14T05:50:18;99415.47;;;10.46;54.33
57894;BME280;43710;47.460;19.034;2023-03-14T05:53:21;99419.88;;;10.64;69.53
57894;BME280;43710;47.460;19.034;2023-03-14T05:56:24;99415.31;;;10.65;57.52
57894;BME280;43710;47.460;19.034;2023-03-14T05:59:26;99422.44;;;10.69;55.53
57894;BME280;43710;47.460;19.034;2023-03-14T06:02:29;99428.91;;;10.68;54.46
57894;BME280;43710;47.460;19.034;2023-03-14T06:05:32;99423.25;;;10.70;56.19
57894;BME280;43710;47.460;19.034;2023-03-14T06:08:35;99427.78;;;10.69;54.70
57894;BME280;43710;47.460;19.034;2023-03-14T06:11:37;99430.56;;;10.78;53.39
57894;BME280;43710;47.460;19.034;2023-03-14T06:14:40;99422.59;;;10.87;53.56
57894;BME280;43710;47.460;19.034;2023-03-14T06:17:43;99421.37;;;10.93;54.35
57894;BME280;43710;47.460;19.034;2023-03-14T06:20:45;99424.78;;;11.16;68.82
57894;BME280;43710;47.460;19.034;2023-03-14T06:23:48;99424.25;;;11.27;56.72
57894;BME280;43710;47.460;19.034;2023-03-14T06:26:51;99418.94;;;11.36;53.77
57894;BME280;43710;47.460;19.034;2023-03-14T06:29:54;99415.03;;;11.51;57.24
57894;BME280;43710;47.460;19.034;2023-03-14T06:32:56;99424.63;;;11.43;53.02
57894;BME280;43710;47.460;19.034;2023-03-14T06:35:59;99427.09;;;11.62;53.46
57894;BME280;43710;47.460;19.034;2023-03-14T06:39:01;99428.00;;;11.58;60.08
57894;BME280;43710;47.460;19.034;2023-03-14T06:42:05;99421.41;;;11.64;52.84
57894;BME280;43710;47.460;19.034;2023-03-14T06:45:08;99430.56;;;11.63;54.67
57894;BME280;43710;47.460;19.034;2023-03-14T06:48:11;99430.84;;;11.61;55.36
57894;BME280;43710;47.460;19.034;2023-03-14T06:51:13;99433.38;;;11.58;51.85
57894;BME280;43710;47.460;19.034;2023-03-14T06:54:16;99434.94;;;11.59;53.32
57894;BME280;43710;47.460;19.034;2023-03-14T06:57:18;99429.63;;;11.67;63.75
57894;BME280;43710;47.460;19.034;2023-03-14T07:00:22;99436.56;;;11.68;53.78
57894;BME280;43710;47.460;19.034;2023-03-14T07:03:26;99427.69;;;11.90;54.40
57894;BME280;43710;47.460;19.034;2023-03-14T07:06:29;99430.72;;;12.06;63.66
57894;BME280;43710;47.460;19.034;2023-03-14T07:09:32;99433.41;;;12.06;58.06
57894;BME280;43710;47.460;19.034;2023-03-14T07:12:35;99428.00;;;11.97;53.43
57894;BME280;43710;47.460;19.034;2023-03-14T07:15:37;99434.00;;;11.94;51.94
57894;BME280;43710;47.460;19.034;2023-03-14T07:18:43;99428.19;;;12.01;62.55
57894;BME280;43710;47.460;19.034;2023-03-14T07:21:46;99437.31;;;11.91;63.25
57894;BME280;43710;47.460;19.034;2023-03-14T07:24:49;99429.28;;;12.00;52.81
57894;BME280;43710;47.460;19.034;2023-03-14T07:27:52;99428.63;;;11.94;53.15
57894;BME280;43710;47.460;19.034;2023-03-14T07:30:55;99429.16;;;12.14;54.64
57894;BME280;43710;47.460;19.034;2023-03-14T07:33:58;99428.19;;;12.10;53.10
57894;BME280;43710;47.460;19.034;2023-03-14T07:37:03;99423.47;;;12.15;52.37
57894;BME280;43710;47.460;19.034;2023-03-14T07:40:08;99424.44;;;12.19;51.25
57894;BME280;43710;47.460;19.034;2023-03-14T07:43:13;99408.94;;;12.34;54.14
57894;BME280;43710;47.460;19.034;2023-03-14T07:46:16;99401.38;;;12.36;51.94
57894;BME280;43710;47.460;19.034;2023-03-14T07:49:19;99395.97;;;12.44;61.19
57894;BME280;43710;47.460;19.034;2023-03-14T07:52:22;99401.03;;;12.55;52.11
57894;BME280;43710;47.460;19.034;2023-03-14T07:55:25;99391.22;;;12.67;64.07
57894;BME280;43710;47.460;19.034;2023-03-14T07:58:29;99385.38;;;12.83;60.52
57894;BME280;43710;47.460;19.034;2023-03-14T08:01:31;99396.44;;;12.81;54.29
57894;BME280;43710;47.460;19.034;2023-03-14T08:04:34;99376.31;;;12.96;53.63
57894;BME280;43710;47.460;19.034;2023-03-14T08:07:36;99375.50;;;13.04;62.54
57894;BME280;43710;47.460;19.034;2023-03-14T08:10:38;99376.41;;;13.17;59.19
57894;BME280;43710;47.460;19.034;2023-03-14T08:13:40;99363.44;;;13.19;55.06
57894;BME280;43710;47.460;19.034;2023-03-14T08:16:43;99353.75;;;13.35;55.87
57894;BME280;43710;47.460;19.034;2023-03-14T08:19:45;99347.81;;;13.51;51.68
57894;BME280;43710;47.460;19.034;2023-03-14T08:22:48;99347.81;;;13.51;52.35
57894;BME280;43710;47.460;19.034;2023-03-14T08:25:51;99334.16;;;13.56;56.67
57894;BME280;43710;47.460;19.034;2023-03-14T08:28:54;99343.41;;;13.76;66.78
57894;BME280;43710;47.460;19.034;2023-03-14T08:31:56;99351.44;;;13.84;57.41
57894;BME280;43710;47.460;19.034;2023-03-14T08:34:59;99335.06;;;13.90;57.51
57894;BME280;43710;47.460;19.034;2023-03-14T08:38:01;99334.53;;;13.96;53.20
57894;BME280;43710;47.460;19.034;2023-03-14T08:41:04;99342.38;;;14.10;58.18
57894;BME280;43710;47.460;19.034;2023-03-14T08:44:07;99334.84;;;14.37;56.84
57894;BME280;43710;47.460;19.034;2023-03-14T08:47:12;99320.81;;;14.31;51.79
57894;BME280;43710;47.460;19.034;2023-03-14T08:50:15;99326.31;;;14.34;50.23
57894;BME280;43710;47.460;19.034;2023-03-14T08:53:18;99317.34;;;14.43;49.10
57894;BME280;43710;47.460;19.034;2023-03-14T08:56:22;99321.38;;;14.37;48.56
57894;BME280;43710;47.460;19.034;2023-03-14T08:59:27;99316.38;;;14.47;54.17
57894;BME280;43710;47.460;19.034;2023-03-14T09:02:29;99317.69;;;14.62;56.52
57894;BME280;43710;47.460;19.034;2023-03-14T09:05:33;99301.53;;;14.74;53.48
57894;BME280;43710;47.460;19.034;2023-03-14T09:08:36;99303.34;;;14.70;48.04
57894;BME280;43710;47.460;19.034;2023-03-14T09:11:40;99308.97;;;14.77;48.59
57894;BME280;43710;47.460;19.034;2023-03-14T09:14:43;99306.59;;;14.76;47.97
57894;BME280;43710;47.460;19.034;2023-03-14T09:17:45;99292.13;;;14.93;51.03
57894;BME280;43710;47.460;19.034;2023-03-14T09:20:49;99287.97;;;14.95;55.63
57894;BME280;43710;47.460;19.034;2023-03-14T09:23:52;99275.91;;;14.93;48.12
57894;BME280;43710;47.460;19.034;2023-03-14T09:26:55;99278.53;;;15.01;53.09
57894;BME280;43710;47.460;19.034;2023-03-14T09:29:58;99278.31;;;15.07;48.70
57894;BME280;43710;47.460;19.034;2023-03-14T09:33:00;99268.06;;;15.12;50.37
57894;BME280;43710;47.460;19.034;2023-03-14T09:36:04;99263.44;;;15.13;50.63
57894;BME280;43710;47.460;19.034;2023-03-14T09:39:07;99255.47;;;15.28;57.02
57894;BME280;43710;47.460;19.034;2023-03-14T09:42:14;99242.53;;;15.46;56.35
57894;BME280;43710;47.460;19.034;2023-03-14T09:45:28;99244.78;;;15.44;48.85
57894;BME280;43710;47.460;19.034;2023-03-14T09:48:33;99240.50;;;15.43;49.23
57894;BME280;43710;47.460;19.034;2023-03-14T09:51:37;99235.31;;;15.50;47.62
57894;BME280;43710;47.460;19.034;2023-03-14T09:55:04;99234.97;;;15.52;47.05
57894;BME280;43710;47.460;19.034;2023-03-14T09:58:13;99224.81;;;15.61;49.02
57894;BME280;43710;47.460;19.034;2023-03-14T10:01:22;99224.47;;;15.63;47.58
57894;BME280;43710;47.460;19.034;2023-03-14T10:04:28;99210.94;;;15.75;55.90
57894;BME280;43710;47.460;19.034;2023-03-14T10:07:33;99194.69;;;15.87;53.34
57894;BME280;43710;47.460;19.034;2023-03-14T10:10:36;99189.34;;;16.03;58.82
57894;BME280;43710;47.460;19.034;2023-03-14T10:14:30;99189.00;;;16.05;49.87
57894;BME280;43710;47.460;19.034;2023-03-14T10:17:17;99169.50;;;16.27;51.77
57894;BME280;43710;47.460;19.034;2023-03-14T10:20:36;99170.28;;;16.43;46.43
57894;BME280;43710;47.460;19.034;2023-03-14T10:23:39;99165.06;;;16.66;45.64
57894;BME280;43710;47.460;19.034;2023-03-14T10:26:42;99163.00;;;16.76;43.64
57894;BME280;43710;47.460;19.034;2023-03-14T10:29:58;99149.16;;;16.97;51.83
57894;BME280;43710;47.460;19.034;2023-03-14T10:36:23;99135.22;;;17.14;43.05
57894;BME280;43710;47.460;19.034;2023-03-14T10:39:50;99141.16;;;17.20;43.38
57894;BME280;43710;47.460;19.034;2023-03-14T10:42:54;99127.75;;;17.27;44.77
57894;BME280;43710;47.460;19.034;2023-03-14T10:45:59;99134.31;;;17.26;42.94
57894;BME280;43710;47.460;19.034;2023-03-14T10:49:06;99120.00;;;17.25;44.18
57894;BME280;43710;47.460;19.034;2023-03-14T10:52:13;99118.94;;;17.30;42.92
57894;BME280;43710;47.460;19.034;2023-03-14T10:55:16;99115.06;;;17.31;42.01
57894;BME280;43710;47.460;19.034;2023-03-14T10:58:23;99114.09;;;17.39;42.21
57894;BME280;43710;47.460;19.034;2023-03-14T11:01:36;99101.03;;;17.45;42.04
57894;BME280;43710;47.460;19.034;2023-03-14T11:07:52;99104.38;;;17.57;40.79
57894;BME280;43710;47.460;19.034;2023-03-14T11:11:24;99092.75;;;17.57;41.23
57894;BME280;43710;47.460;19.034;2023-03-14T11:14:36;99083.12;;;17.59;41.67
57894;BME280;43710;47.460;19.034;2023-03-14T11:21:16;99080.03;;;17.61;42.03
57894;BME280;43710;47.460;19.034;2023-03-14T11:25:03;99077.41;;;17.65;42.01
57894;BME280;43710;47.460;19.034;2023-03-14T11:28:37;99061.34;;;17.75;40.44
57894;BME280;43710;47.460;19.034;2023-03-14T11:31:44;99058.38;;;17.80;41.46
57894;BME280;43710;47.460;19.034;2023-03-14T11:34:54;99056.81;;;17.79;45.31
57894;BME280;43710;47.460;19.034;2023-03-14T11:41:42;99051.00;;;17.81;42.28
57894;BME280;43710;47.460;19.034;2023-03-14T11:44:49;99038.31;;;17.85;41.92
57894;BME280;43710;47.460;19.034;2023-03-14T11:48:20;99041.37;;;17.83;41.46
57894;BME280;43710;47.460;19.034;2023-03-14T11:51:34;99036.00;;;17.87;41.84
57894;BME280;43710;47.460;19.034;2023-03-14T11:54:53;99046.25;;;17.97;40.86
57894;BME280;43710;47.460;19.034;2023-03-14T11:58:23;99033.25;;;18.06;43.19
57894;BME280;43710;47.460;19.034;2023-03-14T12:01:34;99027.19;;;18.17;40.38
57894;BME280;43710;47.460;19.034;2023-03-14T12:05:14;99012.97;;;18.23;46.18
57894;BME280;43710;47.460;19.034;2023-03-14T12:08:29;99011.91;;;18.28;41.59
57894;BME280;43710;47.460;19.034;2023-03-14T12:11:44;99005.06;;;18.38;41.08
57894;BME280;43710;47.460;19.034;2023-03-14T12:15:01;99012.44;;;18.41;39.80
57894;BME280;43710;47.460;19.034;2023-03-14T12:18:35;99011.75;;;18.47;39.66
57894;BME280;43710;47.460;19.034;2023-03-14T12:28:18;98989.56;;;18.68;39.67
57894;BME280;43710;47.460;19.034;2023-03-14T12:34:41;98976.91;;;18.76;39.14
57894;BME280;43710;47.460;19.034;2023-03-14T12:37:46;98982.72;;;18.74;39.67
57894;BME280;43710;47.460;19.034;2023-03-14T12:41:08;98983.09;;;18.76;40.84
57894;BME280;43710;47.460;19.034;2023-03-14T12:50:53;98968.09;;;18.56;39.91
57894;BME280;43710;47.460;19.034;2023-03-14T12:57:32;98956.28;;;18.41;41.02
57894;BME280;43710;47.460;19.034;2023-03-14T13:00:40;98949.25;;;18.40;39.83
57894;BME280;43710;47.460;19.034;2023-03-14T13:03:52;98956.97;;;18.35;46.54
57894;BME280;43710;47.460;19.034;2023-03-14T13:06:59;98954.19;;;18.31;44.94
57894;BME280;43710;47.460;19.034;2023-03-14T13:10:16;98945.09;;;18.20;40.48
57894;BME280;43710;47.460;19.034;2023-03-14T13:13:22;98950.88;;;18.15;40.62
57894;BME280;43710;47.460;19.034;2023-03-14T13:16:25;98943.47;;;18.12;41.26
57894;BME280;43710;47.460;19.034;2023-03-14T13:19:29;98939.50;;;18.05;40.27
57894;BME280;43710;47.460;19.034;2023-03-14T13:22:34;98937.19;;;18.07;45.13
57894;BME280;43710;47.460;19.034;2023-03-14T13:25:39;98935.13;;;18.01;41.38
57894;BME280;43710;47.460;19.034;2023-03-14T13:28:41;98930.41;;;17.94;41.91
57894;BME280;43710;47.460;19.034;2023-03-14T13:31:45;98938.38;;;17.83;41.94
57894;BME280;43710;47.460;19.034;2023-03-14T13:34:48;98936.03;;;17.82;41.56
57894;BME280;43710;47.460;19.034;2023-03-14T13:38:01;98941.75;;;17.77;42.60
57894;BME280;43710;47.460;19.034;2023-03-14T13:41:13;98934.69;;;17.72;41.28
57894;BME280;43710;47.460;19.034;2023-03-14T13:44:29;98951.31;;;17.71;42.17
57894;BME280;43710;47.460;19.034;2023-03-14T13:47:33;98953.59;;;17.69;41.71
57894;BME280;43710;47.460;19.034;2023-03-14T13:50:35;98945.81;;;17.67;42.05
57894;BME280;43710;47.460;19.034;2023-03-14T13:56:46;98946.53;;;17.64;50.18
57894;BME280;43710;47.460;19.034;2023-03-14T14:00:04;98946.53;;;17.64;44.06
57894;BME280;43710;47.460;19.034;2023-03-14T14:03:13;98948.84;;;17.62;42.70
57894;BME280;43710;47.460;19.034;2023-03-14T14:06:30;98948.84;;;17.62;42.55
57894;BME280;43710;47.460;19.034;2023-03-14T14:09:41;98945.41;;;17.65;41.98
57894;BME280;43710;47.460;19.034;2023-03-14T14:12:59;98944.28;;;17.66;43.30
57894;BME280;43710;47.460;19.034;2023-03-14T14:16:03;98945.09;;;17.70;48.71
57894;BME280;43710;47.460;19.034;2023-03-14T14:19:06;98930.72;;;17.66;43.19
57894;BME280;43710;47.460;19.034;2023-03-14T14:22:10;98928.50;;;17.72;46.37
57894;BME280;43710;47.460;19.034;2023-03-14T14:25:14;98933.53;;;17.73;46.32
57894;BME280;43710;47.460;19.034;2023-03-14T14:31:22;98932.31;;;17.71;44.85
57894;BME280;43710;47.460;19.034;2023-03-14T14:34:30;98935.03;;;17.71;42.61
57894;BME280;43710;47.460;19.034;2023-03-14T14:37:43;98926.19;;;17.74;44.42
57894;BME280;43710;47.460;19.034;2023-03-14T14:40:49;98926.63;;;17.76;47.38
57894;BME280;43710;47.460;19.034;2023-03-14T14:43:51;98928.19;;;17.77;48.19
57894;BME280;43710;47.460;19.034;2023-03-14T14:46:55;98931.69;;;17.77;49.87
57894;BME280;43710;47.460;19.034;2023-03-14T14:50:00;98921.63;;;17.78;47.67
57894;BME280;43710;47.460;19.034;2023-03-14T14:53:40;98912.72;;;17.77;41.91
57894;BME280;43710;47.460;19.034;2023-03-14T14:56:50;98919.06;;;17.85;43.44
57894;BME280;43710;47.460;19.034;2023-03-14T15:00:06;98913.63;;;17.85;44.27
57894;BME280;43710;47.460;19.034;2023-03-14T15:03:13;98916.34;;;17.85;42.96
57894;BME280;43710;47.460;19.034;2023-03-14T15:06:17;98916.63;;;17.80;43.47
57894;BME280;43710;47.460;19.034;2023-03-14T15:09:20;98916.63;;;17.80;44.22
57894;BME280;43710;47.460;19.034;2023-03-14T15:12:22;98927.59;;;17.87;45.82
57894;BME280;43710;47.460;19.034;2023-03-14T15:15:26;98922.53;;;17.86;42.81
57894;BME280;43710;47.460;19.034;2023-03-14T15:18:29;98921.63;;;17.78;46.21
57894;BME280;43710;47.460;19.034;2023-03-14T15:21:32;98930.78;;;17.70;43.85
57894;BME280;43710;47.460;19.034;2023-03-14T15:24:35;98938.41;;;17.64;43.66
57894;BME280;43710;47.460;19.034;2023-03-14T15:27:37;98930.59;;;17.59;42.42
57894;BME280;43710;47.460;19.034;2023-03-14T15:30:44;98945.66;;;17.56;47.06
57894;BME280;43710;47.460;19.034;2023-03-14T15:33:47;98949.03;;;17.50;42.13
57894;BME280;43710;47.460;19.034;2023-03-14T15:36:49;98942.00;;;17.45;44.33
57894;BME280;43710;47.460;19.034;2023-03-14T15:39:52;98947.03;;;17.47;48.60
57894;BME280;43710;47.460;19.034;2023-03-14T15:42:54;98954.38;;;17.46;51.58
57894;BME280;43710;47.460;19.034;2023-03-14T15:45:56;98953.53;;;17.42;53.80
57894;BME280;43710;47.460;19.034;2023-03-14T15:48:59;98963.87;;;17.36;44.73
57894;BME280;43710;47.460;19.034;2023-03-14T15:52:01;98980.84;;;17.33;42.84
57894;BME280;43710;47.460;19.034;2023-03-14T15:55:04;99018.00;;;17.33;42.00
57894;BME280;43710;47.460;19.034;2023-03-14T15:58:15;99018.13;;;17.21;48.22
57894;BME280;43710;47.460;19.034;2023-03-14T16:01:18;99014.59;;;16.97;54.26
57894;BME280;43710;47.460;19.034;2023-03-14T16:04:21;99027.31;;;16.61;56.42
57894;BME280;43710;47.460;19.034;2023-03-14T16:07:25;99030.88;;;16.30;58.21
57894;BME280;43710;47.460;19.034;2023-03-14T16:10:27;99024.94;;;16.25;62.24
57894;BME280;43710;47.460;19.034;2023-03-14T16:13:31;99028.56;;;15.97;63.85
57894;BME280;43710;47.460;19.034;2023-03-14T16:16:34;99019.38;;;15.86;64.72
57894;BME280;43710;47.460;19.034;2023-03-14T16:19:36;99025.47;;;15.67;67.63
57894;BME280;43710;47.460;19.034;2023-03-14T16:22:39;99015.41;;;15.51;69.55
57894;BME280;43710;47.460;19.034;2023-03-14T16:25:43;99011.09;;;15.35;67.82
57894;BME280;43710;47.460;19.034;2023-03-14T16:28:47;99021.22;;;15.38;68.06
57894;BME280;43710;47.460;19.034;2023-03-14T16:31:49;99023.22;;;15.41;68.41
57894;BME280;43710;47.460;19.034;2023-03-14T16:34:51;99022.44;;;15.40;67.97
57894;BME280;43710;47.460;19.034;2023-03-14T16:37:53;99032.69;;;15.35;67.33
57894;BME280;43710;47.460;19.034;2023-03-14T16:41:03;99030.38;;;15.33;69.22
57894;BME280;43710;47.460;19.034;2023-03-14T16:44:06;99046.00;;;15.27;68.60
57894;BME280;43710;47.460;19.034;2023-03-14T16:47:09;99058.53;;;15.20;68.55
57894;BME280;43710;47.460;19.034;2023-03-14T16:50:12;99061.00;;;15.13;68.08
57894;BME280;43710;47.460;19.034;2023-03-14T16:53:14;99077.78;;;15.06;68.20
57894;BME280;43710;47.460;19.034;2023-03-14T16:56:16;99086.47;;;14.99;72.11
57894;BME280;43710;47.460;19.034;2023-03-14T16:59:19;99095.91;;;15.06;68.74
57894;BME280;43710;47.460;19.034;2023-03-14T17:02:21;99100.09;;;14.91;70.03
